Time;durP1;ratioP1;P1;durP2;ratioP2;P2;SDS_P1;SDS_P2;PMS_P1;PMS_P2;Temp;Humidity;BMP_temperature;BMP_pressure;BME280_temperature;BME280_humidity;BME280_pressure;Samples;Min_cycle;Max_cycle;Signal;HPM_P1;HPM_P2
2021/12/28 00:00:09;;;;;;;27.75;16.13;;;2.90;99.90;;;;;;5069575;28;20047;-45
2021/12/28 00:02:35;;;;;;;27.77;15.70;;;3.00;99.90;;;;;;5051588;28;20041;-46
2021/12/28 00:05:01;;;;;;;30.17;15.68;;;3.00;99.90;;;;;;5069797;28;20028;-46
2021/12/28 00:07:29;;;;;;;27.38;14.82;;;3.00;99.90;;;;;;5053112;28;20036;-45
2021/12/28 00:09:54;;;;;;;25.33;14.15;;;3.00;99.90;;;;;;5044222;28;20533;-45
2021/12/28 00:12:20;;;;;;;25.52;14.18;;;3.00;99.90;;;;;;5057651;28;20123;-47
2021/12/28 00:15:02;;;;;;;29.95;14.85;;;3.10;99.90;;;;;;5089995;28;20554;-46
2021/12/28 00:20:14;;;;;;;27.58;14.90;;;3.10;99.90;;;;;;5079948;28;20489;-46
2021/12/28 00:22:40;;;;;;;27.95;14.55;;;3.10;99.90;;;;;;5067958;28;20036;-48
2021/12/28 00:25:06;;;;;;;29.23;15.05;;;3.20;99.90;;;;;;5086699;28;20097;-46
2021/12/28 00:27:32;;;;;;;24.13;14.27;;;3.20;99.90;;;;;;5063405;28;20089;-47
2021/12/28 00:30:01;;;;;;;30.42;14.93;;;3.20;99.90;;;;;;5044426;28;20491;-45
2021/12/28 00:32:28;;;;;;;27.55;14.88;;;3.20;99.90;;;;;;5063403;28;20137;-45
2021/12/28 00:34:53;;;;;;;27.20;14.63;;;3.20;99.90;;;;;;5041672;28;20083;-46
2021/12/28 00:37:20;;;;;;;27.77;13.82;;;3.20;99.90;;;;;;5078662;28;20268;-47
2021/12/28 00:39:46;;;;;;;29.05;14.35;;;3.20;99.90;;;;;;5102877;28;20036;-45
2021/12/28 00:42:13;;;;;;;24.38;13.77;;;3.30;99.90;;;;;;5083847;28;20055;-49
2021/12/28 00:44:40;;;;;;;25.08;14.15;;;3.30;99.90;;;;;;5084618;28;20041;-46
2021/12/28 00:47:06;;;;;;;27.73;14.75;;;3.30;99.90;;;;;;5054916;28;20039;-46
2021/12/28 00:49:31;;;;;;;25.92;14.23;;;3.30;99.90;;;;;;5063822;28;20051;-47
2021/12/28 00:51:57;;;;;;;25.75;14.02;;;3.30;99.90;;;;;;5076145;28;20068;-46
2021/12/28 00:54:24;;;;;;;31.80;15.57;;;3.30;99.90;;;;;;5070708;28;20040;-45
2021/12/28 00:56:52;;;;;;;33.33;15.80;;;3.30;99.90;;;;;;5029509;28;20042;-45
2021/12/28 00:59:20;;;;;;;30.88;16.20;;;3.30;99.90;;;;;;5058538;28;20045;-48
2021/12/28 01:01:47;;;;;;;33.35;15.55;;;3.30;99.90;;;;;;5087462;28;20047;-45
2021/12/28 01:04:14;;;;;;;33.95;17.05;;;3.30;99.90;;;;;;5074479;28;20048;-46
2021/12/28 01:06:40;;;;;;;33.95;15.43;;;3.30;99.90;;;;;;5064894;28;20741;-45
2021/12/28 01:09:07;;;;;;;33.92;17.15;;;3.40;99.90;;;;;;5054046;28;20041;-46
2021/12/28 01:11:33;;;;;;;36.10;17.20;;;3.40;99.90;;;;;;5102915;28;20044;-48
2021/12/28 01:13:59;;;;;;;34.25;16.70;;;3.40;99.90;;;;;;5075820;28;20491;-46
2021/12/28 01:16:25;;;;;;;34.38;18.27;;;3.40;99.90;;;;;;5053901;28;20066;-47
2021/12/28 01:18:52;;;;;;;39.03;17.80;;;3.40;99.90;;;;;;5069449;28;20036;-46
2021/12/28 01:21:19;;;;;;;36.30;17.77;;;3.50;99.90;;;;;;5057721;28;20571;-46
2021/12/28 01:23:46;;;;;;;34.05;18.67;;;3.50;99.90;;;;;;5071837;28;20124;-44
2021/12/28 01:26:11;;;;;;;36.88;19.13;;;3.50;99.90;;;;;;5026870;28;20406;-48
2021/12/28 01:28:38;;;;;;;37.58;19.83;;;3.50;99.90;;;;;;5076976;28;20044;-49
2021/12/28 01:31:04;;;;;;;35.95;18.88;;;3.60;99.90;;;;;;5078014;28;20390;-46
2021/12/28 01:33:30;;;;;;;44.55;20.02;;;3.60;99.90;;;;;;5054146;28;20048;-48
2021/12/28 01:35:58;;;;;;;41.53;19.85;;;3.60;99.90;;;;;;5036651;28;20565;-49
2021/12/28 01:38:24;;;;;;;44.60;20.35;;;3.60;99.90;;;;;;5086880;28;20110;-49
2021/12/28 01:40:52;;;;;;;43.92;20.33;;;3.60;99.90;;;;;;5020291;28;20048;-49
2021/12/28 01:43:21;;;;;;;48.13;21.33;;;3.60;99.90;;;;;;5053455;28;20048;-45
2021/12/28 01:45:59;;;;;;;55.67;21.85;;;3.70;99.90;;;;;;5092460;28;20101;-46
2021/12/28 01:48:29;;;;;;;48.75;21.70;;;3.70;99.90;;;;;;5054159;28;20045;-47
2021/12/28 01:51:01;;;;;;;46.47;21.58;;;3.70;99.90;;;;;;5053379;28;20110;-46
2021/12/28 01:53:29;;;;;;;61.20;24.70;;;3.80;99.90;;;;;;5057623;28;20333;-47
2021/12/28 01:55:56;;;;;;;;;;;3.80;99.90;;;;;;5073671;28;20072;-46
2021/12/28 01:58:22;;;;;;;60.38;24.35;;;3.80;99.90;;;;;;5056774;28;20351;-49
2021/12/28 02:00:50;;;;;;;50.17;21.88;;;3.80;99.90;;;;;;5074091;28;20048;-48
2021/12/28 02:03:19;;;;;;;64.15;24.52;;;3.80;99.90;;;;;;5036597;28;20071;-45
2021/12/28 02:05:46;;;;;;;62.53;24.38;;;3.80;99.90;;;;;;5072497;28;20039;-47
2021/12/28 02:08:13;;;;;;;73.20;24.42;;;3.80;99.90;;;;;;5053055;28;20059;-45
2021/12/28 02:10:41;;;;;;;63.13;24.45;;;3.80;99.90;;;;;;5101191;28;20128;-47
2021/12/28 02:13:07;;;;;;;51.13;22.20;;;3.80;99.90;;;;;;5067108;28;20048;-45
2021/12/28 02:15:35;;;;;;;55.22;23.42;;;3.80;99.90;;;;;;5077461;28;20032;-47
2021/12/28 02:18:03;;;;;;;65.38;23.92;;;3.80;99.90;;;;;;5063611;28;20036;-46
2021/12/28 02:20:29;;;;;;;59.58;23.05;;;3.80;99.90;;;;;;5036529;28;20079;-46
2021/12/28 02:22:56;;;;;;;81.63;27.10;;;3.80;99.90;;;;;;5036408;28;20127;-45
2021/12/28 02:25:23;;;;;;;83.67;27.20;;;3.80;99.90;;;;;;5052844;28;20044;-47
2021/12/28 02:27:50;;;;;;;80.57;26.55;;;3.90;99.90;;;;;;5070629;28;20044;-46
2021/12/28 02:30:19;;;;;;;82.72;26.65;;;3.90;99.90;;;;;;5052213;28;20090;-46
2021/12/28 02:32:47;;;;;;;94.35;28.25;;;3.90;99.90;;;;;;5041773;28;20040;-46
2021/12/28 02:35:17;;;;;;;118.80;28.80;;;3.90;99.90;;;;;;5075132;28;20048;-46
2021/12/28 02:37:43;;;;;;;80.88;25.83;;;3.90;99.90;;;;;;5054805;28;20067;-46
2021/12/28 02:40:13;;;;;;;63.53;25.27;;;3.90;99.90;;;;;;5073513;28;20489;-46
2021/12/28 02:42:40;;;;;;;99.93;29.02;;;3.90;99.90;;;;;;5077631;28;20083;-47
2021/12/28 02:45:19;;;;;;;130.38;32.92;;;3.90;99.90;;;;;;5085625;28;20050;-46
2021/12/28 02:47:46;;;;;;;105.97;31.15;;;3.90;99.90;;;;;;5035701;28;20051;-47
2021/12/28 02:50:24;;;;;;;93.03;27.83;;;3.90;99.90;;;;;;5070380;28;20102;-46
2021/12/28 02:52:50;;;;;;;123.38;29.05;;;4.00;99.90;;;;;;5053538;28;20052;-47
2021/12/28 02:55:19;;;;;;;120.32;29.90;;;4.00;99.90;;;;;;5088695;28;20442;-46
2021/12/28 02:57:54;;;;;;;177.02;33.20;;;4.00;99.90;;;;;;5089047;28;20044;-46
2021/12/28 03:00:31;;;;;;;183.00;34.67;;;4.00;99.90;;;;;;5062272;28;20053;-46
2021/12/28 03:02:58;;;;;;;199.45;35.22;;;4.00;99.90;;;;;;5063938;28;20097;-46
2021/12/28 03:05:24;;;;;;;116.25;31.35;;;4.00;99.90;;;;;;5090236;28;20055;-47
2021/12/28 03:07:51;;;;;;;126.93;31.65;;;4.00;99.90;;;;;;5057220;28;20051;-47
2021/12/28 03:10:17;;;;;;;158.38;34.60;;;4.10;99.90;;;;;;5082230;28;20502;-46
2021/12/28 03:12:43;;;;;;;203.10;38.58;;;4.10;99.90;;;;;;5071203;28;20037;-47
2021/12/28 03:15:09;;;;;;;109.97;29.50;;;4.10;99.90;;;;;;5089644;28;20567;-46
2021/12/28 03:17:39;;;;;;;113.95;31.35;;;4.10;99.90;;;;;;5057117;28;20123;-46
2021/12/28 03:20:06;;;;;;;133.57;30.88;;;4.10;99.90;;;;;;5077405;28;20092;-49
2021/12/28 03:22:36;;;;;;;142.50;33.78;;;4.10;99.90;;;;;;5052199;28;20048;-47
2021/12/28 03:25:04;;;;;;;112.35;31.30;;;4.20;99.90;;;;;;5070035;28;20449;-46
2021/12/28 03:27:31;;;;;;;122.82;32.30;;;4.20;99.90;;;;;;5041703;28;20527;-45
2021/12/28 03:29:57;;;;;;;128.75;34.38;;;4.20;99.90;;;;;;5058419;28;20076;-45
2021/12/28 03:32:23;;;;;;;187.40;36.40;;;4.30;99.90;;;;;;5051132;28;20040;-45
2021/12/28 03:34:49;;;;;;;273.52;43.42;;;4.30;99.90;;;;;;5068526;28;20037;-45
2021/12/28 03:37:17;;;;;;;265.90;41.40;;;4.30;99.90;;;;;;5065061;28;20036;-48
2021/12/28 03:39:43;;;;;;;226.50;40.13;;;4.30;99.90;;;;;;5089012;28;20040;-46
2021/12/28 03:42:10;;;;;;;249.32;39.90;;;4.30;99.90;;;;;;5089600;28;20046;-45
2021/12/28 03:44:37;;;;;;;213.50;37.72;;;4.30;99.90;;;;;;5075733;28;20071;-45
2021/12/28 03:47:04;;;;;;;342.42;44.72;;;4.40;99.90;;;;;;5039324;28;20474;-47
2021/12/28 03:49:29;;;;;;;230.18;35.17;;;4.30;99.90;;;;;;5104493;28;20044;-46
2021/12/28 03:51:55;;;;;;;206.30;38.05;;;4.30;99.90;;;;;;5050624;28;20040;-47
2021/12/28 03:54:21;;;;;;;247.20;42.55;;;4.40;99.90;;;;;;5051238;28;20136;-46
2021/12/28 03:56:47;;;;;;;155.02;35.65;;;4.40;99.90;;;;;;5070719;28;20048;-46
2021/12/28 03:59:13;;;;;;;224.50;39.72;;;4.40;99.90;;;;;;5043430;28;20377;-46
2021/12/28 04:01:39;;;;;;;240.65;40.92;;;3.90;99.90;;;;;;5066665;28;20055;-49
2021/12/28 04:04:05;;;;;;;375.48;51.30;;;4.40;99.90;;;;;;5089020;28;20049;-46
2021/12/28 04:06:32;;;;;;;262.63;41.72;;;4.40;99.90;;;;;;5044301;28;20135;-45
2021/12/28 04:09:02;;;;;;;318.02;43.80;;;4.40;99.90;;;;;;5067980;28;20189;-46
2021/12/28 04:11:27;;;;;;;228.75;42.50;;;4.40;99.90;;;;;;5079576;28;20561;-46
2021/12/28 04:13:57;;;;;;;368.40;47.65;;;4.40;99.90;;;;;;5075884;28;20135;-46
2021/12/28 04:16:23;;;;;;;242.93;37.97;;;4.40;99.90;;;;;;5089594;28;20048;-46
2021/12/28 04:18:51;;;;;;;197.85;36.47;;;4.40;99.90;;;;;;5100629;28;20039;-45
2021/12/28 04:21:18;;;;;;;264.80;44.53;;;4.40;99.90;;;;;;5109904;28;20103;-46
2021/12/28 04:23:44;;;;;;;438.60;46.20;;;4.40;99.90;;;;;;5075031;28;20177;-46
2021/12/28 04:26:10;;;;;;;316.77;42.27;;;4.40;99.90;;;;;;5099439;28;20051;-45
2021/12/28 04:28:36;;;;;;;426.77;48.13;;;4.40;99.90;;;;;;5071347;28;20047;-47
2021/12/28 04:31:03;;;;;;;386.85;44.65;;;4.40;99.90;;;;;;5054512;28;20062;-46
2021/12/28 04:33:32;;;;;;;584.13;52.97;;;4.40;99.90;;;;;;5071261;28;20048;-45
2021/12/28 04:35:58;;;;;;;499.92;53.95;;;4.30;99.90;;;;;;5067371;28;20055;-45
2021/12/28 04:38:24;;;;;;;380.52;42.63;;;4.30;99.90;;;;;;5071604;28;20039;-46
2021/12/28 04:40:51;;;;;;;261.50;40.78;;;4.30;99.90;;;;;;5048878;28;20101;-45
2021/12/28 04:43:16;;;;;;;238.02;40.05;;;4.30;99.90;;;;;;5050768;28;20110;-46
2021/12/28 04:45:42;;;;;;;328.20;45.72;;;4.30;99.90;;;;;;5056031;28;20389;-46
2021/12/28 04:48:08;;;;;;;325.77;44.40;;;4.10;99.90;;;;;;5051007;28;20051;-46
2021/12/28 04:50:38;;;;;;;450.10;51.17;;;4.40;99.90;;;;;;5050926;28;20453;-45
2021/12/28 04:53:10;;;;;;;453.52;53.40;;;4.40;99.90;;;;;;5069022;28;20115;-45
2021/12/28 04:55:45;;;;;;;381.92;44.08;;;4.40;99.90;;;;;;5062576;28;20528;-46
2021/12/28 04:58:12;;;;;;;385.48;50.20;;;4.40;99.90;;;;;;5047376;28;20501;-46
2021/12/28 05:00:39;;;;;;;460.90;54.95;;;4.40;99.90;;;;;;5068529;28;20498;-48
2021/12/28 05:03:05;;;;;;;302.27;43.55;;;4.40;99.90;;;;;;5073487;28;20045;-46
2021/12/28 05:05:32;;;;;;;381.65;46.00;;;4.40;99.90;;;;;;5092381;28;20478;-46
2021/12/28 05:07:58;;;;;;;395.05;54.83;;;4.40;99.90;;;;;;5079000;28;20032;-46
2021/12/28 05:10:24;;;;;;;303.90;45.25;;;4.50;99.90;;;;;;5073581;28;20505;-45
2021/12/28 05:12:51;;;;;;;359.38;46.72;;;4.50;99.90;;;;;;5066770;28;20423;-46
2021/12/28 05:15:18;;;;;;;522.67;59.45;;;4.60;99.90;;;;;;5030659;28;20040;-45
2021/12/28 05:17:44;;;;;;;269.35;44.17;;;4.60;99.90;;;;;;5070553;28;20033;-45
2021/12/28 05:20:10;;;;;;;451.65;56.05;;;4.70;99.90;;;;;;5053766;28;20663;-45
2021/12/28 05:22:36;;;;;;;514.63;61.97;;;4.70;99.90;;;;;;5074900;28;20171;-45
2021/12/28 05:25:04;;;;;;;523.20;56.00;;;4.70;99.90;;;;;;5082386;28;20036;-45
2021/12/28 05:27:30;;;;;;;425.55;50.78;;;4.70;99.90;;;;;;5036943;28;20049;-45
2021/12/28 05:29:56;;;;;;;471.55;53.53;;;4.80;99.90;;;;;;5087189;28;20044;-45
2021/12/28 05:32:21;;;;;;;434.95;54.03;;;4.80;99.90;;;;;;5036706;28;20048;-46
2021/12/28 05:34:47;;;;;;;439.52;50.28;;;4.80;99.90;;;;;;5066996;28;20036;-46
2021/12/28 05:37:13;;;;;;;362.48;47.72;;;4.80;99.90;;;;;;5053380;28;20048;-45
2021/12/28 05:39:40;;;;;;;297.70;44.25;;;4.80;99.90;;;;;;5071499;28;20033;-45
2021/12/28 05:42:07;;;;;;;184.85;36.92;;;4.80;99.90;;;;;;5071280;28;20049;-46
2021/12/28 05:44:33;;;;;;;375.30;46.22;;;4.80;99.90;;;;;;5053285;28;20463;-47
2021/12/28 05:46:59;;;;;;;193.20;37.63;;;4.80;99.90;;;;;;5089936;28;20184;-46
2021/12/28 05:49:25;;;;;;;171.07;34.40;;;4.80;99.90;;;;;;5053883;28;20033;-46
2021/12/28 05:51:51;;;;;;;247.43;37.10;;;4.70;99.90;;;;;;5071522;28;20045;-46
2021/12/28 05:54:18;;;;;;;230.48;36.05;;;4.80;99.90;;;;;;5036843;28;20048;-46
2021/12/28 05:56:45;;;;;;;219.75;36.65;;;4.70;99.90;;;;;;5079065;28;20044;-46
2021/12/28 05:59:11;;;;;;;192.57;34.22;;;4.70;99.90;;;;;;5062405;28;20044;-46
2021/12/28 06:01:37;;;;;;;176.02;36.13;;;4.70;99.90;;;;;;5083947;28;20070;-47
2021/12/28 06:04:04;;;;;;;226.70;38.83;;;4.70;99.90;;;;;;5020220;28;20130;-45
2021/12/28 06:06:31;;;;;;;155.65;33.35;;;4.70;99.90;;;;;;5042712;28;20056;-45
2021/12/28 06:08:57;;;;;;;128.07;31.25;;;4.70;99.90;;;;;;5071131;28;20056;-45
2021/12/28 06:11:23;;;;;;;136.68;32.75;;;4.70;99.90;;;;;;5070774;28;20070;-46
2021/12/28 06:13:49;;;;;;;153.65;33.10;;;4.70;99.90;;;;;;5069202;28;20044;-46
2021/12/28 06:16:15;;;;;;;139.35;31.40;;;4.70;99.90;;;;;;5070842;28;20050;-46
2021/12/28 06:18:41;;;;;;;126.85;31.70;;;4.70;99.90;;;;;;5049605;28;20036;-45
2021/12/28 06:21:07;;;;;;;115.50;29.17;;;4.70;99.90;;;;;;5052660;28;20070;-46
2021/12/28 06:23:33;;;;;;;135.68;31.48;;;4.70;99.90;;;;;;5097755;28;20485;-45
2021/12/28 06:26:00;;;;;;;121.38;31.88;;;4.70;99.90;;;;;;5059649;28;20036;-46
2021/12/28 06:28:29;;;;;;;105.47;28.30;;;4.60;99.90;;;;;;5075870;28;20041;-45
2021/12/28 06:30:56;;;;;;;107.45;28.52;;;4.70;99.90;;;;;;5072279;28;20052;-45
2021/12/28 06:33:22;;;;;;;101.57;28.20;;;4.60;99.90;;;;;;5091156;28;20589;-45
2021/12/28 06:35:52;;;;;;;109.03;28.27;;;4.60;99.90;;;;;;5066224;28;20110;-47
2021/12/28 06:38:19;;;;;;;93.78;27.13;;;4.60;99.90;;;;;;5057604;28;20076;-46
2021/12/28 06:40:45;;;;;;;87.38;26.58;;;4.60;99.90;;;;;;5077322;28;20059;-45
2021/12/28 06:43:11;;;;;;;90.00;26.98;;;4.60;99.90;;;;;;5075282;28;20052;-47
2021/12/28 06:45:38;;;;;;;92.05;26.45;;;4.60;99.90;;;;;;5094116;28;20377;-46
2021/12/28 06:48:04;;;;;;;97.20;27.47;;;4.60;99.90;;;;;;5073801;28;20059;-46
2021/12/28 06:50:30;;;;;;;79.13;26.33;;;4.60;99.90;;;;;;5044333;28;20586;-46
2021/12/28 06:52:56;;;;;;;93.45;26.13;;;4.50;99.90;;;;;;5070285;28;20082;-45
2021/12/28 06:55:22;;;;;;;78.50;25.67;;;4.60;99.90;;;;;;5052128;28;20095;-47
2021/12/28 06:57:48;;;;;;;72.28;24.02;;;4.50;99.90;;;;;;5051694;28;20036;-45
2021/12/28 07:00:18;;;;;;;72.93;23.58;;;4.60;99.90;;;;;;5076649;28;20043;-47
2021/12/28 07:02:45;;;;;;;87.55;24.63;;;4.50;99.90;;;;;;5068672;28;20043;-47
2021/12/28 07:05:12;;;;;;;81.57;24.52;;;4.50;99.90;;;;;;5090461;28;20043;-46
2021/12/28 07:07:39;;;;;;;86.47;24.65;;;4.60;99.90;;;;;;5054532;28;20044;-45
2021/12/28 07:10:07;;;;;;;81.22;24.50;;;4.60;99.90;;;;;;5069901;28;20040;-46
2021/12/28 07:12:34;;;;;;;83.40;24.90;;;4.60;99.90;;;;;;5067849;28;20045;-45
2021/12/28 07:15:00;;;;;;;81.68;24.00;;;4.60;99.90;;;;;;5069235;28;20545;-46
2021/12/28 07:17:27;;;;;;;75.32;24.42;;;4.60;99.90;;;;;;5068524;28;20040;-47
2021/12/28 07:19:54;;;;;;;79.25;25.50;;;4.60;99.90;;;;;;5051742;28;20078;-48
2021/12/28 07:22:21;;;;;;;85.25;25.67;;;4.60;99.90;;;;;;5085812;28;20075;-45
2021/12/28 07:24:48;;;;;;;80.80;24.45;;;4.60;99.90;;;;;;5089800;28;20040;-46
2021/12/28 07:27:14;;;;;;;81.10;24.52;;;4.60;99.90;;;;;;5084171;28;20154;-46
2021/12/28 07:29:40;;;;;;;77.70;23.67;;;4.60;99.90;;;;;;5045569;28;20044;-49
2021/12/28 07:32:08;;;;;;;83.10;23.95;;;4.60;99.90;;;;;;5080673;28;20051;-49
2021/12/28 07:34:35;;;;;;;;;;;4.60;99.90;;;;;;5077831;28;20079;-46
2021/12/28 07:37:01;;;;;;;78.63;23.27;;;4.60;99.90;;;;;;5105942;28;20326;-47
2021/12/28 07:39:27;;;;;;;64.90;22.27;;;4.50;99.90;;;;;;5091522;28;20122;-48
2021/12/28 07:41:53;;;;;;;61.78;20.65;;;4.40;99.90;;;;;;5087044;28;20046;-46
2021/12/28 07:44:19;;;;;;;70.00;23.42;;;4.40;99.90;;;;;;5071198;28;20048;-46
2021/12/28 07:46:45;;;;;;;61.95;21.50;;;4.40;99.90;;;;;;5088649;28;20096;-47
2021/12/28 07:49:12;;;;;;;61.83;21.40;;;4.40;99.90;;;;;;5110199;28;20035;-48
2021/12/28 07:51:38;;;;;;;;;;;4.40;99.90;;;;;;5092468;28;20356;-47
2021/12/28 07:54:05;;;;;;;60.60;21.45;;;4.40;99.90;;;;;;5100900;28;19922;-46
2021/12/28 07:56:32;;;;;;;54.75;20.35;;;4.50;99.90;;;;;;5088409;28;20431;-46
2021/12/28 07:58:59;;;;;;;55.10;20.83;;;4.50;99.90;;;;;;5089026;28;20056;-47
2021/12/28 08:01:25;;;;;;;55.45;20.23;;;4.60;99.90;;;;;;5086887;28;20126;-46
2021/12/28 08:03:51;;;;;;;48.95;19.33;;;4.60;99.90;;;;;;5078250;28;20490;-46
2021/12/28 08:06:17;;;;;;;55.35;20.27;;;4.60;99.90;;;;;;5085440;28;20149;-46
2021/12/28 08:08:43;;;;;;;49.13;18.60;;;4.70;99.90;;;;;;5107140;28;20481;-46
2021/12/28 08:11:09;;;;;;;50.05;17.92;;;4.70;99.90;;;;;;5105312;28;20044;-46
2021/12/28 08:13:35;;;;;;;51.85;18.15;;;4.70;99.90;;;;;;5071625;28;20044;-47
2021/12/28 08:16:01;;;;;;;48.65;17.15;;;4.70;99.90;;;;;;5070738;28;20043;-48
2021/12/28 08:18:27;;;;;;;47.25;17.90;;;4.70;99.90;;;;;;5100389;28;20501;-47
2021/12/28 08:20:53;;;;;;;46.00;16.67;;;4.70;99.90;;;;;;5089178;28;20039;-46
2021/12/28 08:23:19;;;;;;;37.85;14.13;;;4.80;99.90;;;;;;5089159;28;20036;-46
2021/12/28 08:25:45;;;;;;;36.80;14.00;;;4.80;99.90;;;;;;5087982;28;20035;-47
2021/12/28 08:28:12;;;;;;;37.10;14.48;;;4.80;99.90;;;;;;5108710;28;20065;-46
2021/12/28 08:30:38;;;;;;;38.40;14.63;;;4.90;99.90;;;;;;5106581;28;20043;-47
2021/12/28 08:33:06;;;;;;;34.85;14.13;;;4.90;99.90;;;;;;5088502;28;20034;-47
2021/12/28 08:35:33;;;;;;;43.65;14.70;;;5.00;99.90;;;;;;5085931;28;20128;-46
2021/12/28 08:37:59;;;;;;;32.55;13.23;;;5.00;99.90;;;;;;5109931;28;20122;-48
2021/12/28 08:40:25;;;;;;;36.55;13.40;;;5.00;99.90;;;;;;5093367;28;20135;-46
2021/12/28 08:42:53;;;;;;;33.38;14.13;;;5.00;99.90;;;;;;5110205;28;20036;-46
2021/12/28 08:45:19;;;;;;;31.00;13.27;;;5.10;99.90;;;;;;5075112;28;20034;-46
2021/12/28 08:47:47;;;;;;;35.22;13.93;;;5.10;99.90;;;;;;5092252;28;20441;-48
2021/12/28 08:50:14;;;;;;;28.40;12.70;;;5.10;99.90;;;;;;5090307;28;20377;-46
2021/12/28 08:52:41;;;;;;;25.70;11.30;;;5.10;99.90;;;;;;5093781;28;20050;-46
2021/12/28 08:55:08;;;;;;;31.43;14.37;;;5.20;99.90;;;;;;5095237;28;20051;-49
2021/12/28 08:57:34;;;;;;;29.58;11.95;;;5.10;99.90;;;;;;5094547;28;20312;-50
2021/12/28 09:00:01;;;;;;;30.48;12.55;;;5.10;99.90;;;;;;5111805;28;20058;-46
2021/12/28 09:02:26;;;;;;;26.08;10.60;;;5.10;99.90;;;;;;5125110;27;20058;-48
2021/12/28 09:04:52;;;;;;;26.92;10.50;;;5.10;99.90;;;;;;5080344;28;20067;-47
2021/12/28 09:07:19;;;;;;;22.30;10.63;;;5.10;99.90;;;;;;5094261;28;20378;-50
2021/12/28 09:09:46;;;;;;;19.23;9.75;;;5.10;99.90;;;;;;5076890;28;20038;-48
2021/12/28 09:12:12;;;;;;;25.95;10.07;;;5.20;99.90;;;;;;5112888;28;20036;-47
2021/12/28 09:14:42;;;;;;;19.95;9.82;;;5.30;99.90;;;;;;5109416;28;20067;-49
2021/12/28 09:17:09;;;;;;;30.55;11.45;;;5.30;99.90;;;;;;5075102;28;20032;-47
2021/12/28 09:19:36;;;;;;;22.42;9.35;;;5.40;99.90;;;;;;5077193;28;20043;-48
2021/12/28 09:22:03;;;;;;;23.77;9.00;;;5.50;99.90;;;;;;5091428;28;20046;-51
2021/12/28 09:24:29;;;;;;;31.60;9.73;;;5.50;99.90;;;;;;5112204;28;20054;-50
2021/12/28 09:26:56;;;;;;;23.30;10.30;;;5.60;99.90;;;;;;5076110;28;20039;-48
2021/12/28 09:29:29;;;;;;;23.13;9.60;;;5.60;99.90;;;;;;5110293;28;20707;-47
2021/12/28 09:31:57;;;;;;;23.05;9.02;;;5.60;99.90;;;;;;5110344;28;20118;-47
2021/12/28 09:34:23;;;;;;;20.88;9.13;;;5.60;99.90;;;;;;5090710;28;20138;-50
2021/12/28 09:36:50;;;;;;;21.50;8.75;;;5.70;99.90;;;;;;5092746;28;20044;-49
2021/12/28 09:39:22;;;;;;;20.10;7.93;;;5.70;99.90;;;;;;5111594;28;20492;-50
2021/12/28 09:41:51;;;;;;;18.90;7.30;;;5.70;99.90;;;;;;5074229;28;20043;-47
2021/12/28 09:44:17;;;;;;;21.35;9.75;;;5.70;99.90;;;;;;5110168;28;20045;-47
2021/12/28 09:46:43;;;;;;;22.13;8.55;;;5.70;99.90;;;;;;5105967;28;20654;-49
2021/12/28 09:49:09;;;;;;;26.35;8.20;;;5.70;99.90;;;;;;5059803;28;20044;-51
2021/12/28 09:51:35;;;;;;;21.02;7.57;;;5.70;99.90;;;;;;5111361;28;20512;-52
2021/12/28 09:54:01;;;;;;;26.13;8.73;;;5.80;99.90;;;;;;5076988;28;20746;-48
2021/12/28 09:56:27;;;;;;;20.63;7.80;;;5.80;99.90;;;;;;5076065;28;20074;-47
2021/12/28 09:58:53;;;;;;;17.02;8.13;;;5.80;99.90;;;;;;5074017;28;20477;-47
2021/12/28 10:01:20;;;;;;;70.20;63.40;;;5.80;99.90;;;;;;5075416;28;20047;-50
2021/12/28 10:03:47;;;;;;;564.28;410.58;;;5.80;99.90;;;;;;5111266;28;20097;-50
2021/12/28 10:06:22;;;;;;;123.68;81.82;;;5.80;99.90;;;;;;5073841;28;20036;-49
2021/12/28 10:09:08;;;;;;;217.52;159.73;;;5.90;99.90;;;;;;5089594;28;20469;-50
2021/12/28 10:11:36;;;;;;;53.17;35.40;;;5.90;99.90;;;;;;5098923;28;20575;-48
2021/12/28 10:14:18;;;;;;;51.83;37.33;;;6.00;99.90;;;;;;5093554;28;20774;-50
2021/12/28 10:16:52;;;;;;;42.00;29.42;;;6.20;99.90;;;;;;5099956;28;20043;-51
2021/12/28 10:19:40;;;;;;;197.63;155.38;;;6.20;99.90;;;;;;5077611;28;20036;-47
2021/12/28 10:22:25;;;;;;;206.60;156.32;;;6.30;99.90;;;;;;5092575;28;20050;-46
2021/12/28 10:25:02;;;;;;;93.00;72.25;;;6.30;99.90;;;;;;5097371;28;20059;-47
2021/12/28 10:27:31;;;;;;;99.20;84.35;;;6.40;99.90;;;;;;5078141;28;20189;-51
2021/12/28 10:30:08;;;;;;;63.67;55.22;;;6.40;99.90;;;;;;5110574;28;20039;-47
2021/12/28 10:32:35;;;;;;;51.92;43.75;;;6.40;99.90;;;;;;5084050;28;20048;-47
2021/12/28 10:35:06;;;;;;;119.95;104.05;;;6.50;99.90;;;;;;5078652;28;20093;-51
2021/12/28 10:37:36;;;;;;;85.65;68.28;;;6.50;99.90;;;;;;5089378;28;20123;-50
2021/12/28 10:40:11;;;;;;;55.20;39.03;;;6.60;99.90;;;;;;5089655;28;20052;-50
2021/12/28 10:42:42;;;;;;;89.68;63.65;;;6.60;99.90;;;;;;5055575;28;20071;-45
2021/12/28 10:45:17;;;;;;;102.93;71.20;;;6.60;99.90;;;;;;5090130;28;20108;-46
2021/12/28 10:47:44;;;;;;;92.00;61.83;;;6.60;99.90;;;;;;5091734;28;20075;-46
2021/12/28 10:50:29;;;;;;;97.00;63.90;;;6.70;99.90;;;;;;5090552;28;20444;-47
2021/12/28 10:53:07;;;;;;;70.47;49.92;;;6.70;99.90;;;;;;5089941;28;20052;-48
2021/12/28 10:55:34;;;;;;;48.85;30.75;;;6.70;99.90;;;;;;5105139;28;20040;-47
2021/12/28 10:58:02;;;;;;;75.15;48.10;;;6.70;99.90;;;;;;5067678;28;20074;-47
2021/12/28 11:00:43;;;;;;;29.42;18.92;;;6.70;99.90;;;;;;5088929;28;20161;-47
2021/12/28 11:03:16;;;;;;;338.63;233.35;;;6.70;99.90;;;;;;5089538;28;20079;-46
2021/12/28 11:05:51;;;;;;;61.25;38.25;;;6.70;99.90;;;;;;5100327;28;20035;-47
2021/12/28 11:08:19;;;;;;;67.68;48.17;;;6.70;99.90;;;;;;5090139;28;20121;-48
2021/12/28 11:10:49;;;;;;;36.90;23.33;;;6.80;99.90;;;;;;5107053;28;20047;-49
2021/12/28 11:13:19;;;;;;;45.45;31.35;;;6.80;99.90;;;;;;5090814;28;20035;-49
2021/12/28 11:15:46;;;;;;;49.30;34.92;;;6.80;99.90;;;;;;5106194;28;20055;-47
2021/12/28 11:18:28;;;;;;;32.45;17.23;;;6.80;99.90;;;;;;5075280;28;20035;-47
2021/12/28 11:20:55;;;;;;;26.67;15.27;;;6.80;99.90;;;;;;5108584;28;20047;-49
2021/12/28 11:23:27;;;;;;;21.70;14.23;;;6.80;99.90;;;;;;5073281;28;20039;-47
2021/12/28 11:26:17;;;;;;;48.08;36.28;;;6.80;99.90;;;;;;5069705;28;20071;-47
2021/12/28 11:28:55;;;;;;;36.25;19.80;;;6.90;99.90;;;;;;5085282;28;20044;-46
2021/12/28 11:31:27;;;;;;;35.97;22.13;;;6.90;99.90;;;;;;5059518;28;20067;-50
2021/12/28 11:34:00;;;;;;;47.63;32.45;;;6.90;99.90;;;;;;5098004;28;20106;-46
2021/12/28 11:36:48;;;;;;;29.85;17.50;;;6.90;99.90;;;;;;5102591;28;20074;-47
2021/12/28 11:39:17;;;;;;;119.80;107.57;;;6.90;99.90;;;;;;5106449;28;20035;-50
2021/12/28 11:41:45;;;;;;;73.15;66.28;;;6.90;99.90;;;;;;5066888;28;20408;-48
2021/12/28 11:44:13;;;;;;;82.57;75.35;;;6.90;99.90;;;;;;5086886;28;20151;-48
2021/12/28 11:46:39;;;;;;;80.53;73.63;;;6.90;99.90;;;;;;5104932;28;20173;-47
2021/12/28 11:49:08;;;;;;;80.95;73.75;;;6.90;99.90;;;;;;5107354;28;20587;-48
2021/12/28 11:51:34;;;;;;;92.00;83.40;;;6.90;99.90;;;;;;5090136;28;20115;-47
2021/12/28 11:54:05;;;;;;;114.53;103.57;;;6.90;99.90;;;;;;5071479;28;20031;-46
2021/12/28 11:56:35;;;;;;;30.08;16.00;;;6.90;99.90;;;;;;5089334;28;20047;-48
2021/12/28 11:59:16;;;;;;;176.38;158.27;;;6.90;99.90;;;;;;5105670;28;20340;-50
2021/12/28 12:01:44;;;;;;;105.20;94.53;;;7.00;99.90;;;;;;5107270;28;20143;-48
2021/12/28 12:07:14;;;;;;;95.47;85.53;;;7.00;99.90;;;;;;5092751;28;20492;-48
2021/12/28 12:09:49;;;;;;;131.63;118.18;;;7.00;99.90;;;;;;5086133;28;20686;-46
2021/12/28 12:12:22;;;;;;;98.35;89.57;;;7.00;99.90;;;;;;5108296;28;20080;-47
2021/12/28 12:14:56;;;;;;;103.57;92.85;;;7.00;99.90;;;;;;5094076;28;20035;-50
2021/12/28 12:17:28;;;;;;;85.85;77.90;;;7.00;99.90;;;;;;5106708;28;20050;-47
2021/12/28 12:19:56;;;;;;;104.43;94.43;;;7.10;99.90;;;;;;5125440;27;20600;-47
2021/12/28 12:22:45;;;;;;;84.53;76.47;;;7.10;99.90;;;;;;5091721;28;20089;-47
2021/12/28 12:25:15;;;;;;;104.40;94.85;;;7.10;99.90;;;;;;5126183;27;20514;-46
2021/12/28 12:27:59;;;;;;;104.53;95.32;;;7.10;99.90;;;;;;5088986;28;20122;-48
2021/12/28 12:30:27;;;;;;;78.65;71.57;;;7.10;99.90;;;;;;5069320;28;20079;-46
2021/12/28 12:33:05;;;;;;;80.78;73.80;;;7.10;99.90;;;;;;5106414;28;20125;-50
2021/12/28 12:35:35;;;;;;;662.38;467.88;;;7.10;99.90;;;;;;5108903;28;20048;-48
2021/12/28 12:38:14;;;;;;;1999.90;969.92;;;7.10;99.90;;;;;;5090770;28;20051;-49
2021/12/28 12:41:02;;;;;;;1691.65;846.00;;;7.10;99.90;;;;;;5092401;28;20130;-47
2021/12/28 12:43:38;;;;;;;1000.85;622.38;;;7.20;99.90;;;;;;5084654;28;20043;-49